Linden, IN (47955)

11:59 AM EDT on March 27, 2015 (GMT -0400)
Lafayette, Indiana area | | Change Station
CLOSE
Current Station
Personal Weather Station
Location: Romney, IN
Elevation: 755 ft
Nearby Weather Stations

Elev 755 ft 40.26 °N, 86.89 °W | Updated 11 minutes ago

Overcast
Overcast
30.8 °F
Feels Like 23 °F
N
8.0
Wind Variable Wind from West
Gusts 13.0 mph

Today
High -- | Low -- °F
--% Chance of Precip.
Yesterday
High -- | Low -- °F
Precip. -- in
7:39 AM 8:06 PM
First Quarter, 53% visible
Pressure 30.13 in
Visibility 5.0 miles
Clouds Scattered Clouds 2400 ft
Mostly Cloudy 3000 ft
Overcast 4600 ft
Windchill 23 °F
Dew Point 22 °F
Humidity 69%
Rainfall 0.00 in
Snow Depth Not available.
UV 2 out of 12
Pollen 5.80 out of 12
Air Quality Not available.
Flu Activity Not available.
METAR KLAF 271554Z 01011KT 5SM -SN SCT024 BKN030 OVC046 M02/M07 A3012 RMK AO2 SLP203 P0000 T10221072

More Conditions Fewer Conditions

Pressure 30.13 in
Visibility 5.0 miles
Clouds Scattered Clouds 2400 ft
Mostly Cloudy 3000 ft
Overcast 4600 ft
Windchill 23 °F
Dew Point 22 °F
Humidity 69%
Rainfall 0.00 in
Snow Depth Not available.
UV 2 out of 12
Pollen 5.80 out of 12
Air Quality Not available.
Flu Activity Not available.
METAR KLAF 271554Z 01011KT 5SM -SN SCT024 BKN030 OVC046 M02/M07 A3012 RMK AO2 SLP203 P0000 T10221072

More Conditions Fewer Conditions

10-Day Weather Forecast

Almanac

Astronomy

Mar. 27, 2015 Rise Set
Actual Time
Civil Twilight
Nautical Twilight
Astronomical Twilight
Moon
Length of Visible Light
Length of Day
Tomorrow will be .
, % of the Moon is Illuminated

Today's Extremes

State Highs State Lows

Community

WunderPhotos

Upload Photos

1,808,762 photos uploaded!

WunderBlogs® & News

Nearby

Air Quality

  Air Quality AQ Index Pollutant
Not available.

Snow Depth

Station Depth Elevation

Earthquake Activity

City Distance Mag. Time & Date
Minimum magnitude displayed is 2.5.

Coastal Water Temperatures

Place Temperature

Stations

Nearby Weather Stations

Station Location Temp. Windchill Dew Point Humidity Wind Precip. Elev Updated Type